sensor_id;sensor_type;location;lat;lon;timestamp;P1;durP1;ratioP1;P2;durP2;ratioP2
823;SDS011;373;49.342;8.146;2023-09-12T00:01:06;8.85;;;6.30;;
823;SDS011;373;49.342;8.146;2023-09-12T00:03:33;8.20;;;6.68;;
823;SDS011;373;49.342;8.146;2023-09-12T00:06:01;7.35;;;6.18;;
823;SDS011;373;49.342;8.146;2023-09-12T00:08:28;7.10;;;6.05;;
823;SDS011;373;49.342;8.146;2023-09-12T00:11:02;10.20;;;7.15;;
823;SDS011;373;49.342;8.146;2023-09-12T00:13:32;7.95;;;5.68;;
823;SDS011;373;49.342;8.146;2023-09-12T00:15:59;7.65;;;6.10;;
823;SDS011;373;49.342;8.146;2023-09-12T00:18:26;9.75;;;5.93;;
823;SDS011;373;49.342;8.146;2023-09-12T00:20:53;6.78;;;6.13;;
823;SDS011;373;49.342;8.146;2023-09-12T00:23:21;8.20;;;6.93;;
823;SDS011;373;49.342;8.146;2023-09-12T00:25:49;7.50;;;6.28;;
823;SDS011;373;49.342;8.146;2023-09-12T00:28:16;9.05;;;6.78;;
823;SDS011;373;49.342;8.146;2023-09-12T00:30:45;8.88;;;6.53;;
823;SDS011;373;49.342;8.146;2023-09-12T00:33:12;10.27;;;6.57;;
823;SDS011;373;49.342;8.146;2023-09-12T00:35:39;7.40;;;6.10;;
823;SDS011;373;49.342;8.146;2023-09-12T00:38:08;6.32;;;5.72;;
823;SDS011;373;49.342;8.146;2023-09-12T00:40:35;6.68;;;5.97;;
823;SDS011;373;49.342;8.146;2023-09-12T00:43:02;6.82;;;6.20;;
823;SDS011;373;49.342;8.146;2023-09-12T00:45:30;7.10;;;6.35;;
823;SDS011;373;49.342;8.146;2023-09-12T00:47:58;7.57;;;5.65;;
823;SDS011;373;49.342;8.146;2023-09-12T00:50:27;8.27;;;5.95;;
823;SDS011;373;49.342;8.146;2023-09-12T00:52:56;10.52;;;6.40;;
823;SDS011;373;49.342;8.146;2023-09-12T00:55:25;6.60;;;5.90;;
823;SDS011;373;49.342;8.146;2023-09-12T00:57:52;8.02;;;5.88;;
823;SDS011;373;49.342;8.146;2023-09-12T01:00:19;7.82;;;6.28;;
823;SDS011;373;49.342;8.146;2023-09-12T01:02:47;10.30;;;6.18;;
823;SDS011;373;49.342;8.146;2023-09-12T01:05:16;6.85;;;6.13;;
823;SDS011;373;49.342;8.146;2023-09-12T01:07:43;6.18;;;5.55;;
823;SDS011;373;49.342;8.146;2023-09-12T01:10:11;8.00;;;5.63;;
823;SDS011;373;49.342;8.146;2023-09-12T01:12:38;8.32;;;5.97;;
823;SDS011;373;49.342;8.146;2023-09-12T01:15:05;8.05;;;6.43;;
823;SDS011;373;49.342;8.146;2023-09-12T01:17:39;6.45;;;5.80;;
823;SDS011;373;49.342;8.146;2023-09-12T01:20:08;6.85;;;5.80;;
823;SDS011;373;49.342;8.146;2023-09-12T01:22:50;8.73;;;5.78;;
823;SDS011;373;49.342;8.146;2023-09-12T01:25:32;6.60;;;5.53;;
823;SDS011;373;49.342;8.146;2023-09-12T01:28:10;8.18;;;6.57;;
823;SDS011;373;49.342;8.146;2023-09-12T01:30:39;8.23;;;5.80;;
823;SDS011;373;49.342;8.146;2023-09-12T01:33:11;7.15;;;6.25;;
823;SDS011;373;49.342;8.146;2023-09-12T01:35:39;7.63;;;5.97;;
823;SDS011;373;49.342;8.146;2023-09-12T01:38:06;9.05;;;6.25;;
823;SDS011;373;49.342;8.146;2023-09-12T01:40:34;9.98;;;6.63;;
823;SDS011;373;49.342;8.146;2023-09-12T01:43:05;6.50;;;5.90;;
823;SDS011;373;49.342;8.146;2023-09-12T01:45:34;8.45;;;6.53;;
823;SDS011;373;49.342;8.146;2023-09-12T01:48:03;7.15;;;6.45;;
823;SDS011;373;49.342;8.146;2023-09-12T01:50:31;9.20;;;6.45;;
823;SDS011;373;49.342;8.146;2023-09-12T01:52:59;8.77;;;6.43;;
823;SDS011;373;49.342;8.146;2023-09-12T01:55:27;7.85;;;6.07;;
823;SDS011;373;49.342;8.146;2023-09-12T01:57:55;8.70;;;6.32;;
823;SDS011;373;49.342;8.146;2023-09-12T02:00:23;7.88;;;7.13;;
823;SDS011;373;49.342;8.146;2023-09-12T02:02:51;8.20;;;6.28;;
823;SDS011;373;49.342;8.146;2023-09-12T02:05:20;8.85;;;6.40;;
823;SDS011;373;49.342;8.146;2023-09-12T02:07:50;8.45;;;7.20;;
823;SDS011;373;49.342;8.146;2023-09-12T02:10:19;8.00;;;6.93;;
823;SDS011;373;49.342;8.146;2023-09-12T02:12:47;7.93;;;6.22;;
823;SDS011;373;49.342;8.146;2023-09-12T02:15:14;13.70;;;7.95;;
823;SDS011;373;49.342;8.146;2023-09-12T02:17:41;8.15;;;6.78;;
823;SDS011;373;49.342;8.146;2023-09-12T02:20:09;9.48;;;6.82;;
823;SDS011;373;49.342;8.146;2023-09-12T02:22:37;10.15;;;7.13;;
823;SDS011;373;49.342;8.146;2023-09-12T02:25:06;9.70;;;6.95;;
823;SDS011;373;49.342;8.146;2023-09-12T02:27:34;8.20;;;6.30;;
823;SDS011;373;49.342;8.146;2023-09-12T02:30:01;7.10;;;6.00;;
823;SDS011;373;49.342;8.146;2023-09-12T02:32:28;7.55;;;6.53;;
823;SDS011;373;49.342;8.146;2023-09-12T02:34:56;9.48;;;7.30;;
823;SDS011;373;49.342;8.146;2023-09-12T02:37:25;8.23;;;6.70;;
823;SDS011;373;49.342;8.146;2023-09-12T02:39:52;8.20;;;6.47;;
823;SDS011;373;49.342;8.146;2023-09-12T02:42:20;7.03;;;6.38;;
823;SDS011;373;49.342;8.146;2023-09-12T02:44:47;6.95;;;5.78;;
823;SDS011;373;49.342;8.146;2023-09-12T02:47:14;6.70;;;5.90;;
823;SDS011;373;49.342;8.146;2023-09-12T02:49:41;7.75;;;6.30;;
823;SDS011;373;49.342;8.146;2023-09-12T02:52:08;8.07;;;6.65;;
823;SDS011;373;49.342;8.146;2023-09-12T02:54:37;8.10;;;5.93;;
823;SDS011;373;49.342;8.146;2023-09-12T02:57:04;7.55;;;6.68;;
823;SDS011;373;49.342;8.146;2023-09-12T02:59:31;11.40;;;7.22;;
823;SDS011;373;49.342;8.146;2023-09-12T03:01:58;9.18;;;7.10;;
823;SDS011;373;49.342;8.146;2023-09-12T03:04:25;6.70;;;6.03;;
823;SDS011;373;49.342;8.146;2023-09-12T03:06:53;9.65;;;7.00;;
823;SDS011;373;49.342;8.146;2023-09-12T03:09:20;7.55;;;6.30;;
823;SDS011;373;49.342;8.146;2023-09-12T03:11:49;9.52;;;6.40;;
823;SDS011;373;49.342;8.146;2023-09-12T03:14:16;8.25;;;7.00;;
823;SDS011;373;49.342;8.146;2023-09-12T03:16:43;9.15;;;7.00;;
823;SDS011;373;49.342;8.146;2023-09-12T03:19:10;8.27;;;7.47;;
823;SDS011;373;49.342;8.146;2023-09-12T03:21:38;9.82;;;6.97;;
823;SDS011;373;49.342;8.146;2023-09-12T03:24:05;8.20;;;6.88;;
823;SDS011;373;49.342;8.146;2023-09-12T03:26:34;8.68;;;7.25;;
823;SDS011;373;49.342;8.146;2023-09-12T03:29:03;8.68;;;6.90;;
823;SDS011;373;49.342;8.146;2023-09-12T03:31:31;8.70;;;6.85;;
823;SDS011;373;49.342;8.146;2023-09-12T03:33:59;8.65;;;7.03;;
823;SDS011;373;49.342;8.146;2023-09-12T03:36:27;7.85;;;7.03;;
823;SDS011;373;49.342;8.146;2023-09-12T03:38:54;9.82;;;6.95;;
823;SDS011;373;49.342;8.146;2023-09-12T03:41:21;9.45;;;6.65;;
823;SDS011;373;49.342;8.146;2023-09-12T03:43:52;9.85;;;7.05;;
823;SDS011;373;49.342;8.146;2023-09-12T03:46:21;8.13;;;7.30;;
823;SDS011;373;49.342;8.146;2023-09-12T03:48:48;6.85;;;5.90;;
823;SDS011;373;49.342;8.146;2023-09-12T03:51:15;9.55;;;6.78;;
823;SDS011;373;49.342;8.146;2023-09-12T03:53:43;10.13;;;6.88;;
823;SDS011;373;49.342;8.146;2023-09-12T03:56:10;8.75;;;6.88;;
823;SDS011;373;49.342;8.146;2023-09-12T03:58:39;8.38;;;6.45;;
823;SDS011;373;49.342;8.146;2023-09-12T04:01:10;6.95;;;6.25;;
823;SDS011;373;49.342;8.146;2023-09-12T04:03:38;7.25;;;6.55;;
823;SDS011;373;49.342;8.146;2023-09-12T04:06:05;10.25;;;7.57;;
823;SDS011;373;49.342;8.146;2023-09-12T04:08:33;7.05;;;6.43;;
823;SDS011;373;49.342;8.146;2023-09-12T04:11:00;8.48;;;7.18;;
823;SDS011;373;49.342;8.146;2023-09-12T04:13:27;7.47;;;6.60;;
823;SDS011;373;49.342;8.146;2023-09-12T04:15:55;7.45;;;6.70;;
823;SDS011;373;49.342;8.146;2023-09-12T04:18:22;8.63;;;6.32;;
823;SDS011;373;49.342;8.146;2023-09-12T04:20:52;8.38;;;7.40;;
823;SDS011;373;49.342;8.146;2023-09-12T04:23:20;7.22;;;6.55;;
823;SDS011;373;49.342;8.146;2023-09-12T04:25:47;10.85;;;7.70;;
823;SDS011;373;49.342;8.146;2023-09-12T04:28:14;7.03;;;6.43;;
823;SDS011;373;49.342;8.146;2023-09-12T04:30:42;9.77;;;6.68;;
823;SDS011;373;49.342;8.146;2023-09-12T04:33:09;7.38;;;6.60;;
823;SDS011;373;49.342;8.146;2023-09-12T04:35:36;10.63;;;6.55;;
823;SDS011;373;49.342;8.146;2023-09-12T04:38:04;9.63;;;7.25;;
823;SDS011;373;49.342;8.146;2023-09-12T04:40:31;9.80;;;7.53;;
823;SDS011;373;49.342;8.146;2023-09-12T04:42:59;9.70;;;7.03;;
823;SDS011;373;49.342;8.146;2023-09-12T04:45:26;7.25;;;6.55;;
823;SDS011;373;49.342;8.146;2023-09-12T04:47:53;8.02;;;7.22;;
823;SDS011;373;49.342;8.146;2023-09-12T04:50:20;8.10;;;7.30;;
823;SDS011;373;49.342;8.146;2023-09-12T04:52:47;12.07;;;6.75;;
823;SDS011;373;49.342;8.146;2023-09-12T04:55:15;9.85;;;6.75;;
823;SDS011;373;49.342;8.146;2023-09-12T04:57:43;7.60;;;6.90;;
823;SDS011;373;49.342;8.146;2023-09-12T05:00:10;8.88;;;6.80;;
823;SDS011;373;49.342;8.146;2023-09-12T05:02:38;8.32;;;7.63;;
823;SDS011;373;49.342;8.146;2023-09-12T05:05:06;7.47;;;6.78;;
823;SDS011;373;49.342;8.146;2023-09-12T05:07:33;7.45;;;6.80;;
823;SDS011;373;49.342;8.146;2023-09-12T05:10:01;8.18;;;6.95;;
823;SDS011;373;49.342;8.146;2023-09-12T05:12:30;9.40;;;7.18;;
823;SDS011;373;49.342;8.146;2023-09-12T05:14:57;7.85;;;7.05;;
823;SDS011;373;49.342;8.146;2023-09-12T05:17:27;8.25;;;7.30;;
823;SDS011;373;49.342;8.146;2023-09-12T05:19:55;9.70;;;7.65;;
823;SDS011;373;49.342;8.146;2023-09-12T05:22:22;9.25;;;8.13;;
823;SDS011;373;49.342;8.146;2023-09-12T05:24:49;10.20;;;8.27;;
823;SDS011;373;49.342;8.146;2023-09-12T05:27:16;8.48;;;7.28;;
823;SDS011;373;49.342;8.146;2023-09-12T05:29:45;7.90;;;6.93;;
823;SDS011;373;49.342;8.146;2023-09-12T05:32:12;7.82;;;7.13;;
823;SDS011;373;49.342;8.146;2023-09-12T05:34:41;7.70;;;7.00;;
823;SDS011;373;49.342;8.146;2023-09-12T05:37:08;7.97;;;7.22;;
823;SDS011;373;49.342;8.146;2023-09-12T05:39:35;9.38;;;7.60;;
823;SDS011;373;49.342;8.146;2023-09-12T05:42:02;11.05;;;8.27;;
823;SDS011;373;49.342;8.146;2023-09-12T05:44:29;11.70;;;8.27;;
823;SDS011;373;49.342;8.146;2023-09-12T05:46:58;9.38;;;7.72;;
823;SDS011;373;49.342;8.146;2023-09-12T05:49:25;10.52;;;7.72;;
823;SDS011;373;49.342;8.146;2023-09-12T05:51:52;8.32;;;7.50;;
823;SDS011;373;49.342;8.146;2023-09-12T05:54:19;11.32;;;7.75;;
823;SDS011;373;49.342;8.146;2023-09-12T05:56:46;7.88;;;7.05;;
823;SDS011;373;49.342;8.146;2023-09-12T05:59:14;9.60;;;7.13;;
823;SDS011;373;49.342;8.146;2023-09-12T06:01:41;8.50;;;7.80;;
823;SDS011;373;49.342;8.146;2023-09-12T06:04:09;9.13;;;7.00;;
823;SDS011;373;49.342;8.146;2023-09-12T06:06:36;9.10;;;7.40;;
823;SDS011;373;49.342;8.146;2023-09-12T06:09:04;8.30;;;7.47;;
823;SDS011;373;49.342;8.146;2023-09-12T06:11:31;8.45;;;7.28;;
823;SDS011;373;49.342;8.146;2023-09-12T06:13:58;11.20;;;7.88;;
823;SDS011;373;49.342;8.146;2023-09-12T06:16:25;8.50;;;7.70;;
823;SDS011;373;49.342;8.146;2023-09-12T06:18:52;8.27;;;6.70;;
823;SDS011;373;49.342;8.146;2023-09-12T06:24:10;7.30;;;6.47;;
823;SDS011;373;49.342;8.146;2023-09-12T06:26:58;8.55;;;6.93;;
823;SDS011;373;49.342;8.146;2023-09-12T06:29:45;9.38;;;7.28;;
823;SDS011;373;49.342;8.146;2023-09-12T06:35:08;8.63;;;7.63;;
823;SDS011;373;49.342;8.146;2023-09-12T06:37:47;10.18;;;7.00;;
823;SDS011;373;49.342;8.146;2023-09-12T06:40:31;9.10;;;7.53;;
823;SDS011;373;49.342;8.146;2023-09-12T06:55:49;8.07;;;7.20;;
823;SDS011;373;49.342;8.146;2023-09-12T06:58:23;7.10;;;6.18;;
823;SDS011;373;49.342;8.146;2023-09-12T07:00:52;8.70;;;6.80;;
823;SDS011;373;49.342;8.146;2023-09-12T07:18:10;11.57;;;7.05;;
823;SDS011;373;49.342;8.146;2023-09-12T07:46:13;10.10;;;8.50;;
823;SDS011;373;49.342;8.146;2023-09-12T07:48:40;11.38;;;8.60;;
823;SDS011;373;49.342;8.146;2023-09-12T07:51:11;9.98;;;8.93;;
823;SDS011;373;49.342;8.146;2023-09-12T07:53:48;11.05;;;8.77;;
823;SDS011;373;49.342;8.146;2023-09-12T07:56:15;12.65;;;8.63;;
823;SDS011;373;49.342;8.146;2023-09-12T07:58:43;9.52;;;8.05;;
823;SDS011;373;49.342;8.146;2023-09-12T08:01:38;8.85;;;7.95;;
823;SDS011;373;49.342;8.146;2023-09-12T08:04:19;10.63;;;8.60;;
823;SDS011;373;49.342;8.146;2023-09-12T08:06:46;12.52;;;8.10;;
823;SDS011;373;49.342;8.146;2023-09-12T08:09:13;12.02;;;8.15;;
823;SDS011;373;49.342;8.146;2023-09-12T08:11:54;10.30;;;7.55;;
823;SDS011;373;49.342;8.146;2023-09-12T08:14:21;9.68;;;7.38;;
823;SDS011;373;49.342;8.146;2023-09-12T08:17:04;10.45;;;8.30;;
823;SDS011;373;49.342;8.146;2023-09-12T08:19:36;11.30;;;8.02;;
823;SDS011;373;49.342;8.146;2023-09-12T08:22:04;7.72;;;6.93;;
823;SDS011;373;49.342;8.146;2023-09-12T08:24:32;8.98;;;7.32;;
823;SDS011;373;49.342;8.146;2023-09-12T08:26:59;9.50;;;8.32;;
823;SDS011;373;49.342;8.146;2023-09-12T08:29:27;8.18;;;7.38;;
823;SDS011;373;49.342;8.146;2023-09-12T08:31:55;11.10;;;7.88;;
823;SDS011;373;49.342;8.146;2023-09-12T08:34:23;11.13;;;8.32;;
823;SDS011;373;49.342;8.146;2023-09-12T08:36:50;8.23;;;7.38;;
823;SDS011;373;49.342;8.146;2023-09-12T08:39:18;12.45;;;7.78;;
823;SDS011;373;49.342;8.146;2023-09-12T08:41:49;10.07;;;7.97;;
823;SDS011;373;49.342;8.146;2023-09-12T08:44:16;10.25;;;7.50;;
823;SDS011;373;49.342;8.146;2023-09-12T08:46:45;12.10;;;7.72;;
823;SDS011;373;49.342;8.146;2023-09-12T08:49:12;9.43;;;7.32;;
823;SDS011;373;49.342;8.146;2023-09-12T08:51:40;9.23;;;8.13;;
823;SDS011;373;49.342;8.146;2023-09-12T08:54:08;10.82;;;8.35;;
823;SDS011;373;49.342;8.146;2023-09-12T08:56:36;9.05;;;7.65;;
823;SDS011;373;49.342;8.146;2023-09-12T08:59:07;10.77;;;8.73;;
823;SDS011;373;49.342;8.146;2023-09-12T09:01:36;13.10;;;8.25;;
823;SDS011;373;49.342;8.146;2023-09-12T09:04:05;14.70;;;8.88;;
823;SDS011;373;49.342;8.146;2023-09-12T09:06:32;12.25;;;8.65;;
823;SDS011;373;49.342;8.146;2023-09-12T09:09:05;11.88;;;8.00;;
823;SDS011;373;49.342;8.146;2023-09-12T09:11:33;10.65;;;7.80;;
823;SDS011;373;49.342;8.146;2023-09-12T09:14:01;13.63;;;7.80;;
823;SDS011;373;49.342;8.146;2023-09-12T09:16:28;12.02;;;7.70;;
823;SDS011;373;49.342;8.146;2023-09-12T09:18:56;14.50;;;8.05;;
823;SDS011;373;49.342;8.146;2023-09-12T09:21:25;15.40;;;8.25;;
823;SDS011;373;49.342;8.146;2023-09-12T09:23:55;8.90;;;7.28;;
823;SDS011;373;49.342;8.146;2023-09-12T09:26:25;12.13;;;7.45;;
823;SDS011;373;49.342;8.146;2023-09-12T09:29:08;12.85;;;8.55;;
823;SDS011;373;49.342;8.146;2023-09-12T09:31:40;10.70;;;8.13;;
823;SDS011;373;49.342;8.146;2023-09-12T09:34:12;17.95;;;8.90;;
823;SDS011;373;49.342;8.146;2023-09-12T09:36:43;9.52;;;8.07;;
823;SDS011;373;49.342;8.146;2023-09-12T09:39:13;14.23;;;8.63;;
823;SDS011;373;49.342;8.146;2023-09-12T09:41:42;13.38;;;8.00;;
823;SDS011;373;49.342;8.146;2023-09-12T09:44:11;9.23;;;7.60;;
823;SDS011;373;49.342;8.146;2023-09-12T09:46:40;10.18;;;7.93;;
823;SDS011;373;49.342;8.146;2023-09-12T09:49:10;8.20;;;7.38;;
823;SDS011;373;49.342;8.146;2023-09-12T09:51:40;9.40;;;7.78;;
823;SDS011;373;49.342;8.146;2023-09-12T09:54:08;9.40;;;7.40;;
823;SDS011;373;49.342;8.146;2023-09-12T09:56:45;11.20;;;6.57;;
823;SDS011;373;49.342;8.146;2023-09-12T09:59:13;7.53;;;6.78;;
823;SDS011;373;49.342;8.146;2023-09-12T10:01:41;10.68;;;7.07;;
823;SDS011;373;49.342;8.146;2023-09-12T10:04:10;8.85;;;7.13;;
823;SDS011;373;49.342;8.146;2023-09-12T10:06:38;8.57;;;7.15;;
823;SDS011;373;49.342;8.146;2023-09-12T10:09:05;7.35;;;6.65;;
823;SDS011;373;49.342;8.146;2023-09-12T10:11:35;7.65;;;6.63;;
823;SDS011;373;49.342;8.146;2023-09-12T10:14:06;10.55;;;6.75;;
823;SDS011;373;49.342;8.146;2023-09-12T10:16:34;8.57;;;5.90;;
823;SDS011;373;49.342;8.146;2023-09-12T10:19:04;7.05;;;6.45;;
823;SDS011;373;49.342;8.146;2023-09-12T10:21:37;10.48;;;6.95;;
823;SDS011;373;49.342;8.146;2023-09-12T10:24:09;7.43;;;6.65;;
823;SDS011;373;49.342;8.146;2023-09-12T10:26:37;7.25;;;6.55;;
823;SDS011;373;49.342;8.146;2023-09-12T10:29:10;7.25;;;6.13;;
823;SDS011;373;49.342;8.146;2023-09-12T10:31:39;7.15;;;6.53;;
823;SDS011;373;49.342;8.146;2023-09-12T10:34:06;7.45;;;6.35;;
823;SDS011;373;49.342;8.146;2023-09-12T10:36:35;10.23;;;6.80;;
823;SDS011;373;49.342;8.146;2023-09-12T10:39:04;10.30;;;6.35;;
823;SDS011;373;49.342;8.146;2023-09-12T10:41:32;7.40;;;6.65;;
823;SDS011;373;49.342;8.146;2023-09-12T10:44:01;9.10;;;6.57;;
823;SDS011;373;49.342;8.146;2023-09-12T10:46:36;9.95;;;6.57;;
823;SDS011;373;49.342;8.146;2023-09-12T10:49:05;8.55;;;6.88;;
823;SDS011;373;49.342;8.146;2023-09-12T10:51:37;7.70;;;6.90;;
823;SDS011;373;49.342;8.146;2023-09-12T10:54:05;8.13;;;7.00;;
823;SDS011;373;49.342;8.146;2023-09-12T10:56:34;6.95;;;6.30;;
823;SDS011;373;49.342;8.146;2023-09-12T10:59:13;11.38;;;6.32;;
823;SDS011;373;49.342;8.146;2023-09-12T11:01:43;7.43;;;6.22;;
823;SDS011;373;49.342;8.146;2023-09-12T11:04:31;8.55;;;7.22;;
823;SDS011;373;49.342;8.146;2023-09-12T11:12:51;7.35;;;6.65;;
823;SDS011;373;49.342;8.146;2023-09-12T11:15:20;7.65;;;6.43;;
823;SDS011;373;49.342;8.146;2023-09-12T11:17:59;7.35;;;6.75;;
823;SDS011;373;49.342;8.146;2023-09-12T11:23:17;7.20;;;6.50;;
823;SDS011;373;49.342;8.146;2023-09-12T11:25:45;6.38;;;5.85;;
823;SDS011;373;49.342;8.146;2023-09-12T11:28:12;7.38;;;6.00;;
823;SDS011;373;49.342;8.146;2023-09-12T11:30:54;6.68;;;6.13;;
823;SDS011;373;49.342;8.146;2023-09-12T11:33:24;6.85;;;6.25;;
823;SDS011;373;49.342;8.146;2023-09-12T11:35:52;7.25;;;6.55;;
823;SDS011;373;49.342;8.146;2023-09-12T11:38:27;7.32;;;6.03;;
823;SDS011;373;49.342;8.146;2023-09-12T11:40:55;7.50;;;5.95;;
823;SDS011;373;49.342;8.146;2023-09-12T11:43:24;7.05;;;6.40;;
823;SDS011;373;49.342;8.146;2023-09-12T11:45:52;6.80;;;6.28;;
823;SDS011;373;49.342;8.146;2023-09-12T11:48:21;7.07;;;6.13;;
823;SDS011;373;49.342;8.146;2023-09-12T11:50:51;7.22;;;6.55;;
823;SDS011;373;49.342;8.146;2023-09-12T11:53:20;6.07;;;5.65;;
823;SDS011;373;49.342;8.146;2023-09-12T11:55:51;6.70;;;6.20;;
823;SDS011;373;49.342;8.146;2023-09-12T11:58:20;6.75;;;6.25;;
823;SDS011;373;49.342;8.146;2023-09-12T12:00:48;6.68;;;5.93;;
823;SDS011;373;49.342;8.146;2023-09-12T12:03:16;6.72;;;6.22;;
823;SDS011;373;49.342;8.146;2023-09-12T12:05:46;6.88;;;6.28;;
823;SDS011;373;49.342;8.146;2023-09-12T12:08:16;6.80;;;6.15;;
823;SDS011;373;49.342;8.146;2023-09-12T12:10:48;6.50;;;5.90;;
823;SDS011;373;49.342;8.146;2023-09-12T12:13:16;6.00;;;5.60;;
823;SDS011;373;49.342;8.146;2023-09-12T12:15:44;6.68;;;6.07;;
823;SDS011;373;49.342;8.146;2023-09-12T12:18:14;6.47;;;5.88;;
823;SDS011;373;49.342;8.146;2023-09-12T12:20:42;6.93;;;6.28;;
823;SDS011;373;49.342;8.146;2023-09-12T12:23:09;6.90;;;6.30;;
823;SDS011;373;49.342;8.146;2023-09-12T12:25:38;6.57;;;6.05;;
823;SDS011;373;49.342;8.146;2023-09-12T12:28:05;14.75;;;12.23;;
823;SDS011;373;49.342;8.146;2023-09-12T12:30:34;14.55;;;12.65;;
823;SDS011;373;49.342;8.146;2023-09-12T12:33:06;8.02;;;7.15;;
823;SDS011;373;49.342;8.146;2023-09-12T12:35:34;7.15;;;6.60;;
823;SDS011;373;49.342;8.146;2023-09-12T12:38:02;7.32;;;6.63;;
823;SDS011;373;49.342;8.146;2023-09-12T12:40:29;7.60;;;6.43;;
823;SDS011;373;49.342;8.146;2023-09-12T12:42:58;6.47;;;6.00;;
823;SDS011;373;49.342;8.146;2023-09-12T12:45:26;17.40;;;6.20;;
823;SDS011;373;49.342;8.146;2023-09-12T12:47:57;7.05;;;6.40;;
823;SDS011;373;49.342;8.146;2023-09-12T12:50:25;6.32;;;5.75;;
823;SDS011;373;49.342;8.146;2023-09-12T12:52:52;5.88;;;5.47;;
823;SDS011;373;49.342;8.146;2023-09-12T12:55:19;6.80;;;6.13;;
823;SDS011;373;49.342;8.146;2023-09-12T12:57:48;6.72;;;6.15;;
823;SDS011;373;49.342;8.146;2023-09-12T13:00:17;5.85;;;5.45;;
823;SDS011;373;49.342;8.146;2023-09-12T13:02:46;6.10;;;5.45;;
823;SDS011;373;49.342;8.146;2023-09-12T13:05:20;5.75;;;5.25;;
823;SDS011;373;49.342;8.146;2023-09-12T13:07:51;6.70;;;6.03;;
823;SDS011;373;49.342;8.146;2023-09-12T13:10:18;6.22;;;5.72;;
823;SDS011;373;49.342;8.146;2023-09-12T13:12:56;6.95;;;6.25;;
823;SDS011;373;49.342;8.146;2023-09-12T13:15:26;6.28;;;5.75;;
823;SDS011;373;49.342;8.146;2023-09-12T13:17:53;5.55;;;5.15;;
823;SDS011;373;49.342;8.146;2023-09-12T13:20:20;5.15;;;4.65;;
823;SDS011;373;49.342;8.146;2023-09-12T13:22:47;5.30;;;4.80;;
823;SDS011;373;49.342;8.146;2023-09-12T13:25:14;5.25;;;4.75;;
823;SDS011;373;49.342;8.146;2023-09-12T14:22:28;5.15;;;4.75;;
823;SDS011;373;49.342;8.146;2023-09-12T14:24:56;4.25;;;3.95;;
823;SDS011;373;49.342;8.146;2023-09-12T14:27:23;5.15;;;4.70;;
823;SDS011;373;49.342;8.146;2023-09-12T14:29:50;5.40;;;4.90;;
823;SDS011;373;49.342;8.146;2023-09-12T14:32:17;4.95;;;4.55;;
823;SDS011;373;49.342;8.146;2023-09-12T14:34:45;4.93;;;4.47;;
823;SDS011;373;49.342;8.146;2023-09-12T14:37:12;5.28;;;4.78;;
823;SDS011;373;49.342;8.146;2023-09-12T14:39:41;5.18;;;4.78;;
823;SDS011;373;49.342;8.146;2023-09-12T14:42:08;5.55;;;5.05;;
823;SDS011;373;49.342;8.146;2023-09-12T14:44:37;5.70;;;4.45;;
823;SDS011;373;49.342;8.146;2023-09-12T14:47:04;5.63;;;4.93;;
823;SDS011;373;49.342;8.146;2023-09-12T14:49:32;5.53;;;5.13;;
823;SDS011;373;49.342;8.146;2023-09-12T14:51:59;4.82;;;4.43;;
823;SDS011;373;49.342;8.146;2023-09-12T14:54:26;5.35;;;4.95;;
823;SDS011;373;49.342;8.146;2023-09-12T14:56:56;5.40;;;5.00;;
823;SDS011;373;49.342;8.146;2023-09-12T14:59:23;5.05;;;4.60;;
823;SDS011;373;49.342;8.146;2023-09-12T15:01:52;4.93;;;4.63;;
823;SDS011;373;49.342;8.146;2023-09-12T15:04:19;7.72;;;5.75;;
823;SDS011;373;49.342;8.146;2023-09-12T15:06:46;5.05;;;4.65;;
823;SDS011;373;49.342;8.146;2023-09-12T15:09:14;6.70;;;4.75;;
823;SDS011;373;49.342;8.146;2023-09-12T15:11:41;5.03;;;4.57;;
823;SDS011;373;49.342;8.146;2023-09-12T15:14:09;5.88;;;5.32;;
823;SDS011;373;49.342;8.146;2023-09-12T15:16:37;5.63;;;5.13;;
823;SDS011;373;49.342;8.146;2023-09-12T15:19:04;6.55;;;5.15;;
823;SDS011;373;49.342;8.146;2023-09-12T15:21:31;5.90;;;5.40;;
823;SDS011;373;49.342;8.146;2023-09-12T15:23:58;5.50;;;4.82;;
823;SDS011;373;49.342;8.146;2023-09-12T15:26:25;5.07;;;4.60;;
823;SDS011;373;49.342;8.146;2023-09-12T15:28:53;6.30;;;5.68;;
823;SDS011;373;49.342;8.146;2023-09-12T15:31:21;5.60;;;5.20;;
823;SDS011;373;49.342;8.146;2023-09-12T15:33:48;4.82;;;4.53;;
823;SDS011;373;49.342;8.146;2023-09-12T15:36:15;5.80;;;5.18;;
823;SDS011;373;49.342;8.146;2023-09-12T15:38:42;4.85;;;4.43;;
823;SDS011;373;49.342;8.146;2023-09-12T15:41:10;5.32;;;4.93;;
823;SDS011;373;49.342;8.146;2023-09-12T15:43:39;5.47;;;5.05;;
823;SDS011;373;49.342;8.146;2023-09-12T15:46:07;5.50;;;5.10;;
823;SDS011;373;49.342;8.146;2023-09-12T15:48:35;5.25;;;4.85;;
823;SDS011;373;49.342;8.146;2023-09-12T15:51:02;5.43;;;4.93;;
823;SDS011;373;49.342;8.146;2023-09-12T15:53:30;6.03;;;5.43;;
823;SDS011;373;49.342;8.146;2023-09-12T15:55:57;8.45;;;5.28;;
823;SDS011;373;49.342;8.146;2023-09-12T15:58:25;5.50;;;5.10;;
823;SDS011;373;49.342;8.146;2023-09-12T16:00:54;5.45;;;5.00;;
823;SDS011;373;49.342;8.146;2023-09-12T16:03:23;5.65;;;5.13;;
823;SDS011;373;49.342;8.146;2023-09-12T16:05:51;5.43;;;4.97;;
823;SDS011;373;49.342;8.146;2023-09-12T16:08:18;5.85;;;4.78;;
823;SDS011;373;49.342;8.146;2023-09-12T16:10:46;6.03;;;5.20;;
823;SDS011;373;49.342;8.146;2023-09-12T16:13:14;6.70;;;5.63;;
823;SDS011;373;49.342;8.146;2023-09-12T16:15:41;5.35;;;4.82;;
823;SDS011;373;49.342;8.146;2023-09-12T16:18:08;5.82;;;5.18;;
823;SDS011;373;49.342;8.146;2023-09-12T16:20:35;6.10;;;5.50;;
823;SDS011;373;49.342;8.146;2023-09-12T16:23:04;6.40;;;5.03;;
823;SDS011;373;49.342;8.146;2023-09-12T16:25:34;5.90;;;5.40;;
823;SDS011;373;49.342;8.146;2023-09-12T16:28:01;6.82;;;5.93;;
823;SDS011;373;49.342;8.146;2023-09-12T16:30:28;7.97;;;5.47;;
823;SDS011;373;49.342;8.146;2023-09-12T16:32:55;6.05;;;5.22;;
823;SDS011;373;49.342;8.146;2023-09-12T16:35:22;5.50;;;4.95;;
823;SDS011;373;49.342;8.146;2023-09-12T16:37:50;6.55;;;5.90;;
823;SDS011;373;49.342;8.146;2023-09-12T16:40:18;5.68;;;5.13;;
823;SDS011;373;49.342;8.146;2023-09-12T16:42:45;5.30;;;4.80;;
823;SDS011;373;49.342;8.146;2023-09-12T16:45:12;6.53;;;5.97;;
823;SDS011;373;49.342;8.146;2023-09-12T16:47:39;5.90;;;5.20;;
823;SDS011;373;49.342;8.146;2023-09-12T16:50:07;6.93;;;6.22;;
823;SDS011;373;49.342;8.146;2023-09-12T16:52:35;5.05;;;4.72;;
823;SDS011;373;49.342;8.146;2023-09-12T16:55:02;6.63;;;6.07;;
823;SDS011;373;49.342;8.146;2023-09-12T16:57:31;6.00;;;5.15;;
823;SDS011;373;49.342;8.146;2023-09-12T16:59:58;6.38;;;5.88;;
823;SDS011;373;49.342;8.146;2023-09-12T17:02:25;5.07;;;4.75;;
823;SDS011;373;49.342;8.146;2023-09-12T17:04:52;6.05;;;5.53;;
823;SDS011;373;49.342;8.146;2023-09-12T17:07:19;5.50;;;5.00;;
823;SDS011;373;49.342;8.146;2023-09-12T17:09:46;6.18;;;5.30;;
823;SDS011;373;49.342;8.146;2023-09-12T17:12:13;6.53;;;5.18;;
823;SDS011;373;49.342;8.146;2023-09-12T17:14:41;7.30;;;6.47;;
823;SDS011;373;49.342;8.146;2023-09-12T17:17:08;8.50;;;7.70;;
823;SDS011;373;49.342;8.146;2023-09-12T17:19:35;6.00;;;5.50;;
823;SDS011;373;49.342;8.146;2023-09-12T17:22:02;7.07;;;6.22;;
823;SDS011;373;49.342;8.146;2023-09-12T17:24:30;6.03;;;5.50;;
823;SDS011;373;49.342;8.146;2023-09-12T17:26:57;6.88;;;5.47;;
823;SDS011;373;49.342;8.146;2023-09-12T17:29:24;7.40;;;5.45;;
823;SDS011;373;49.342;8.146;2023-09-12T17:31:53;6.07;;;5.57;;
823;SDS011;373;49.342;8.146;2023-09-12T17:34:20;6.75;;;6.07;;
823;SDS011;373;49.342;8.146;2023-09-12T17:37:04;6.38;;;5.85;;
823;SDS011;373;49.342;8.146;2023-09-12T17:39:31;6.38;;;5.70;;
823;SDS011;373;49.342;8.146;2023-09-12T17:42:04;6.63;;;5.97;;
823;SDS011;373;49.342;8.146;2023-09-12T17:44:32;6.53;;;5.93;;
823;SDS011;373;49.342;8.146;2023-09-12T17:47:00;6.40;;;5.90;;
823;SDS011;373;49.342;8.146;2023-09-12T17:49:27;5.85;;;5.22;;
823;SDS011;373;49.342;8.146;2023-09-12T17:51:55;6.13;;;5.57;;
823;SDS011;373;49.342;8.146;2023-09-12T17:54:22;4.85;;;4.50;;